Time;durP1;ratioP1;P1;durP2;ratioP2;P2;SDS_P1;SDS_P2;PMS_P1;PMS_P2;Temp;Humidity;BMP_temperature;BMP_pressure;BME280_temperature;BME280_humidity;BME280_pressure;Samples;Min_cycle;Max_cycle;Signal;HPM_P1;HPM_P2
2022/12/24 00:01:17;;;;;;;54.35;22.73;;;7.10;99.90;;;;;;5084304;28;20035;-57
2022/12/24 00:03:43;;;;;;;46.03;19.50;;;7.10;99.90;;;;;;5081530;28;20043;-60
2022/12/24 00:06:17;;;;;;;46.10;21.38;;;7.10;99.90;;;;;;5068639;27;20201;-60
2022/12/24 00:08:43;;;;;;;43.33;20.92;;;7.10;99.90;;;;;;5098169;27;20097;-58
2022/12/24 00:11:08;;;;;;;54.35;22.10;;;7.10;99.90;;;;;;5095511;27;20117;-58
2022/12/24 00:13:34;;;;;;;57.67;22.45;;;7.10;99.90;;;;;;5077470;28;20048;-60
2022/12/24 00:16:00;;;;;;;55.15;22.60;;;7.10;99.90;;;;;;5055151;28;20085;-60
2022/12/24 00:18:26;;;;;;;47.88;20.75;;;7.10;99.90;;;;;;5076162;28;20044;-59
2022/12/24 00:20:52;;;;;;;44.65;19.63;;;7.10;99.90;;;;;;5082366;28;20118;-59
2022/12/24 00:23:20;;;;;;;51.58;21.38;;;7.10;99.90;;;;;;5082346;28;20051;-60
2022/12/24 00:25:45;;;;;;;40.70;19.50;;;7.10;99.90;;;;;;5067372;28;20092;-60
2022/12/24 00:28:12;;;;;;;50.30;19.95;;;7.10;99.90;;;;;;5083552;28;20047;-60
2022/12/24 00:30:39;;;;;;;50.97;22.77;;;7.10;99.90;;;;;;5071236;28;20555;-59
2022/12/24 00:33:05;;;;;;;45.10;20.90;;;7.10;99.90;;;;;;5051075;28;20043;-57
2022/12/24 00:35:33;;;;;;;56.65;22.48;;;7.10;99.90;;;;;;5072038;28;20035;-59
2022/12/24 00:37:59;;;;;;;34.45;16.77;;;7.20;99.90;;;;;;5104634;27;20058;-59
2022/12/24 00:40:24;;;;;;;44.50;20.48;;;7.10;99.90;;;;;;5083251;27;20043;-57
2022/12/24 00:42:50;;;;;;;37.70;18.10;;;7.10;99.90;;;;;;5087634;28;20114;-58
2022/12/24 00:45:16;;;;;;;40.00;19.20;;;7.10;99.90;;;;;;5082629;28;20256;-60
2022/12/24 00:47:41;;;;;;;41.75;19.55;;;7.10;99.90;;;;;;5092316;28;20050;-59
2022/12/24 00:50:08;;;;;;;43.97;21.33;;;7.20;99.90;;;;;;5093896;27;20486;-59
2022/12/24 00:52:34;;;;;;;57.58;22.70;;;7.10;99.90;;;;;;5089407;28;20039;-59
2022/12/24 00:54:59;;;;;;;41.08;19.58;;;7.20;99.90;;;;;;5079398;28;20104;-60
2022/12/24 00:57:25;;;;;;;49.88;21.60;;;7.20;99.90;;;;;;5089068;27;20043;-59
2022/12/24 00:59:51;;;;;;;53.17;22.13;;;7.20;99.90;;;;;;5085869;28;20071;-58
2022/12/24 01:02:17;;;;;;;57.97;22.88;;;7.20;99.90;;;;;;5081027;28;20063;-58
2022/12/24 01:07:26;;;;;;;48.88;21.50;;;7.20;99.90;;;;;;5071949;28;20076;-58
2022/12/24 01:09:52;;;;;;;37.03;18.75;;;7.20;99.90;;;;;;5081868;28;20083;-59
2022/12/24 01:12:18;;;;;;;44.30;21.15;;;7.20;99.90;;;;;;5080074;28;20097;-57
2022/12/24 01:14:44;;;;;;;60.90;22.25;;;7.20;99.90;;;;;;5081936;28;20036;-58
2022/12/24 01:17:09;;;;;;;56.80;21.92;;;7.20;99.90;;;;;;5104108;28;20092;-61
2022/12/24 01:19:35;;;;;;;56.60;23.60;;;7.20;99.90;;;;;;5077122;28;20108;-61
2022/12/24 01:22:01;;;;;;;39.63;18.95;;;7.20;99.90;;;;;;5106209;28;20027;-59
2022/12/24 01:24:27;;;;;;;39.90;18.77;;;7.20;99.90;;;;;;5068814;28;20474;-58
2022/12/24 01:26:52;;;;;;;47.75;21.13;;;7.20;99.90;;;;;;5084112;28;20052;-58
2022/12/24 01:29:18;;;;;;;54.45;21.17;;;7.20;99.90;;;;;;5082101;28;20043;-61
2022/12/24 01:31:44;;;;;;;37.63;18.20;;;7.20;99.90;;;;;;5088815;28;20138;-60
2022/12/24 01:34:10;;;;;;;44.30;20.45;;;7.20;99.90;;;;;;5099107;28;20131;-60
2022/12/24 01:36:36;;;;;;;74.07;25.75;;;7.20;99.90;;;;;;5067539;28;20183;-58
2022/12/24 01:39:03;;;;;;;64.07;23.05;;;7.20;99.90;;;;;;5085641;28;20039;-59
2022/12/24 01:44:19;;;;;;;40.33;19.08;;;7.20;99.90;;;;;;5085771;28;20047;-60
2022/12/24 01:46:45;;;;;;;47.38;20.98;;;7.20;99.90;;;;;;5083189;28;20059;-58
2022/12/24 01:49:14;;;;;;;59.30;23.90;;;7.20;99.90;;;;;;5085370;28;20067;-60
2022/12/24 01:51:47;;;;;;;38.05;19.60;;;7.30;99.90;;;;;;5100415;28;20410;-58
2022/12/24 01:54:57;;;;;;;49.92;21.63;;;7.20;99.90;;;;;;5081452;28;20500;-60
2022/12/24 01:57:33;;;;;;;40.60;18.85;;;7.30;99.90;;;;;;5001145;28;20128;-56
2022/12/24 02:00:04;;;;;;;42.13;19.85;;;7.30;99.90;;;;;;5004381;28;20045;-60
2022/12/24 02:02:32;;;;;;;35.92;18.75;;;7.30;99.90;;;;;;5056828;28;20079;-61
2022/12/24 02:05:05;;;;;;;34.60;19.35;;;7.30;99.90;;;;;;5079150;28;20046;-60
2022/12/24 02:07:31;;;;;;;38.63;19.60;;;7.30;99.90;;;;;;5082226;28;20035;-58
2022/12/24 02:10:00;;;;;;;37.40;20.02;;;7.30;99.90;;;;;;5067316;28;20040;-60
2022/12/24 02:12:27;;;;;;;42.35;20.42;;;7.30;99.90;;;;;;5083913;28;20044;-57
2022/12/24 02:14:54;;;;;;;37.85;20.30;;;7.30;99.90;;;;;;5068568;28;20130;-59
2022/12/24 02:17:25;;;;;;;44.55;21.98;;;7.30;99.90;;;;;;5085523;28;20050;-60
2022/12/24 02:20:21;;;;;;;37.53;20.42;;;7.40;99.90;;;;;;5074626;28;20044;-60
2022/12/24 02:23:12;;;;;;;40.90;20.13;;;7.40;99.90;;;;;;5059299;28;20039;-60
2022/12/24 02:25:42;;;;;;;39.38;21.42;;;7.40;99.90;;;;;;5079731;28;20043;-60
2022/12/24 02:28:34;;;;;;;45.58;22.05;;;7.40;99.90;;;;;;5103289;28;20036;-59
2022/12/24 02:31:13;;;;;;;37.38;20.25;;;7.40;99.90;;;;;;5064301;28;20052;-60
2022/12/24 02:34:07;;;;;;;35.08;20.00;;;7.40;99.90;;;;;;5090496;28;20043;-60
2022/12/24 02:36:39;;;;;;;39.88;21.92;;;7.40;99.90;;;;;;5067093;27;20040;-60
2022/12/24 02:39:11;;;;;;;36.45;21.30;;;7.40;99.90;;;;;;5085150;28;20059;-60
2022/12/24 02:42:24;;;;;;;38.17;20.50;;;7.40;99.90;;;;;;5088608;28;20035;-60
2022/12/24 02:44:37;;;;;;;36.83;19.50;;;7.50;99.90;;;;;;5077313;28;20059;-58
2022/12/24 02:47:06;;;;;;;33.70;18.65;;;7.50;99.90;;;;;;5070899;28;20094;-59
2022/12/24 02:49:32;;;;;;;32.05;17.40;;;7.60;99.90;;;;;;5085017;28;20139;-58
2022/12/24 02:51:58;;;;;;;34.58;18.13;;;7.70;99.90;;;;;;5084905;28;20534;-60
2022/12/24 02:54:23;;;;;;;36.83;17.80;;;7.80;99.90;;;;;;5079332;28;20036;-59
2022/12/24 02:57:05;;;;;;;34.80;17.95;;;7.80;99.90;;;;;;5088313;28;20035;-58
2022/12/24 02:59:34;;;;;;;31.65;14.55;;;7.90;99.90;;;;;;5066088;28;20551;-60
2022/12/24 03:02:07;;;;;;;26.40;11.90;;;8.00;99.90;;;;;;5080239;28;20605;-60
2022/12/24 03:04:54;;;;;;;26.23;11.50;;;8.00;99.90;;;;;;5071873;28;20051;-59
2022/12/24 03:07:43;;;;;;;26.23;12.52;;;8.10;99.90;;;;;;5103569;28;20576;-60
2022/12/24 03:10:25;;;;;;;34.10;12.70;;;8.10;99.90;;;;;;5086937;28;20525;-61
2022/12/24 03:12:57;;;;;;;26.88;12.30;;;8.10;99.90;;;;;;5085726;28;20551;-59
2022/12/24 03:15:25;;;;;;;24.38;10.95;;;8.00;99.90;;;;;;5086423;28;20138;-60
2022/12/24 03:17:55;;;;;;;26.63;10.40;;;8.00;99.90;;;;;;5103817;27;20038;-61
2022/12/24 03:20:29;;;;;;;22.23;9.40;;;8.00;99.90;;;;;;5079061;28;20194;-59
2022/12/24 03:22:55;;;;;;;28.17;9.98;;;8.00;99.90;;;;;;5087650;28;20069;-59
2022/12/24 03:25:23;;;;;;;31.23;11.48;;;8.10;99.90;;;;;;5086024;28;20405;-60
2022/12/24 03:27:49;;;;;;;34.47;10.30;;;8.20;99.90;;;;;;5069573;28;20169;-58
2022/12/24 03:30:17;;;;;;;41.72;11.25;;;8.20;99.90;;;;;;5087274;28;20494;-59
2022/12/24 03:32:43;;;;;;;27.25;10.60;;;8.20;99.90;;;;;;5108936;28;20043;-60
2022/12/24 03:35:10;;;;;;;28.73;10.32;;;8.30;99.90;;;;;;5089322;28;20088;-60
2022/12/24 03:37:36;;;;;;;22.55;9.45;;;8.30;99.90;;;;;;5082815;28;20123;-58
2022/12/24 03:40:04;;;;;;;32.10;10.45;;;8.30;99.90;;;;;;5099362;28;20032;-59
2022/12/24 03:42:29;;;;;;;31.80;10.10;;;8.40;99.90;;;;;;5085057;28;20079;-58
2022/12/24 03:44:55;;;;;;;27.42;9.20;;;8.40;99.90;;;;;;5066460;28;20139;-60
2022/12/24 03:47:21;;;;;;;39.47;10.43;;;8.40;99.90;;;;;;5106749;28;20055;-60
2022/12/24 03:49:46;;;;;;;32.22;9.80;;;8.40;99.90;;;;;;5088388;28;20448;-60
2022/12/24 03:52:12;;;;;;;30.35;9.32;;;8.50;99.90;;;;;;5083205;28;20059;-60
2022/12/24 03:54:38;;;;;;;37.00;12.27;;;8.50;99.90;;;;;;5082779;28;20040;-60
2022/12/24 03:57:04;;;;;;;29.70;8.68;;;8.50;99.90;;;;;;5100081;27;20500;-59
2022/12/24 03:59:30;;;;;;;39.30;9.85;;;8.50;99.90;;;;;;5108615;27;20112;-61
2022/12/24 04:01:55;;;;;;;44.28;8.63;;;8.50;99.90;;;;;;5082481;27;20042;-60
2022/12/24 04:04:21;;;;;;;42.00;9.90;;;8.50;99.90;;;;;;5070778;28;20031;-59
2022/12/24 04:06:47;;;;;;;45.72;7.53;;;8.40;99.90;;;;;;5086971;27;20529;-60
2022/12/24 04:09:12;;;;;;;43.10;7.78;;;8.40;99.90;;;;;;5099444;27;20039;-60
2022/12/24 04:11:38;;;;;;;35.92;7.10;;;8.40;99.90;;;;;;5101834;28;20120;-60
2022/12/24 04:14:04;;;;;;;46.05;7.57;;;8.30;99.90;;;;;;5084051;28;20038;-60
2022/12/24 04:16:29;;;;;;;33.95;6.55;;;8.30;99.90;;;;;;5088679;28;20554;-60
2022/12/24 04:18:55;;;;;;;38.05;7.03;;;8.30;99.90;;;;;;5085863;28;20043;-60
2022/12/24 04:21:21;;;;;;;39.63;7.45;;;8.30;99.90;;;;;;5104470;27;20046;-61
2022/12/24 04:23:47;;;;;;;33.90;5.95;;;8.20;99.90;;;;;;5079495;28;20675;-59
2022/12/24 04:26:14;;;;;;;53.38;9.75;;;8.20;99.90;;;;;;5088023;27;20039;-60
2022/12/24 04:28:41;;;;;;;40.50;6.75;;;8.30;99.90;;;;;;5076074;28;20043;-58
2022/12/24 04:31:13;;;;;;;38.47;6.53;;;8.20;99.90;;;;;;5063604;28;20379;-60
2022/12/24 04:33:38;;;;;;;43.58;7.45;;;8.20;99.90;;;;;;5087096;28;20397;-60
2022/12/24 04:36:06;;;;;;;43.75;7.43;;;8.20;99.90;;;;;;5049291;28;20081;-60
2022/12/24 04:38:33;;;;;;;38.03;6.68;;;8.20;99.90;;;;;;5083527;28;20036;-61
2022/12/24 04:41:00;;;;;;;39.10;6.90;;;8.20;99.90;;;;;;5081909;28;20100;-60
2022/12/24 04:43:28;;;;;;;46.63;7.55;;;8.20;99.90;;;;;;5101076;28;20036;-59
2022/12/24 04:45:54;;;;;;;50.55;7.97;;;8.20;99.90;;;;;;5078785;28;20051;-60
2022/12/24 04:48:20;;;;;;;50.25;6.45;;;8.20;99.90;;;;;;5082283;28;20097;-59
2022/12/24 04:50:46;;;;;;;45.40;7.60;;;8.20;99.90;;;;;;5103139;28;20123;-60
2022/12/24 04:53:13;;;;;;;54.75;10.98;;;8.20;99.90;;;;;;5066892;28;20127;-59
2022/12/24 04:55:44;;;;;;;42.72;7.18;;;8.30;99.90;;;;;;5067061;28;20043;-59
2022/12/24 04:58:10;;;;;;;43.95;9.80;;;8.20;99.90;;;;;;5085016;28;20063;-60
2022/12/24 05:00:36;;;;;;;42.10;6.72;;;8.20;99.90;;;;;;5102236;28;20063;-60
2022/12/24 05:03:01;;;;;;;46.45;8.18;;;8.20;99.90;;;;;;5084424;28;20067;-59
2022/12/24 05:05:28;;;;;;;44.83;7.32;;;8.20;99.90;;;;;;5081721;28;20337;-60
2022/12/24 05:07:53;;;;;;;42.72;6.85;;;8.30;99.90;;;;;;5086190;28;20039;-60
2022/12/24 05:10:19;;;;;;;45.58;8.00;;;8.20;99.90;;;;;;5081872;27;20448;-60
2022/12/24 05:12:45;;;;;;;35.53;7.20;;;8.30;99.90;;;;;;5067024;28;20047;-61
2022/12/24 05:15:10;;;;;;;38.63;6.75;;;8.30;99.90;;;;;;5082467;28;20043;-61
2022/12/24 05:17:36;;;;;;;44.35;8.10;;;8.30;99.90;;;;;;5064764;28;20054;-58
2022/12/24 05:20:02;;;;;;;50.08;8.05;;;8.30;99.90;;;;;;5085176;28;20581;-60
2022/12/24 05:27:56;;;;;;;41.38;8.00;;;8.30;99.90;;;;;;5097320;28;19923;-59
2022/12/24 05:30:22;;;;;;;46.17;8.95;;;8.20;99.90;;;;;;5085882;27;20040;-60
2022/12/24 05:32:48;;;;;;;47.75;9.77;;;8.30;99.90;;;;;;5085230;28;20051;-60
2022/12/24 05:35:13;;;;;;;52.92;8.88;;;8.30;99.90;;;;;;5084883;28;20488;-60
2022/12/24 05:37:39;;;;;;;46.22;8.57;;;8.30;99.90;;;;;;5106640;27;20047;-58
2022/12/24 05:40:05;;;;;;;42.20;6.82;;;8.30;99.90;;;;;;5081034;28;20089;-59
2022/12/24 05:42:31;;;;;;;46.70;8.55;;;8.30;99.90;;;;;;5102045;28;20043;-59
2022/12/24 05:44:57;;;;;;;40.67;7.00;;;8.30;99.90;;;;;;5081929;28;20039;-58
2022/12/24 05:47:22;;;;;;;42.83;7.00;;;8.30;99.90;;;;;;5086061;28;20031;-60
2022/12/24 05:49:48;;;;;;;42.58;7.10;;;8.30;99.90;;;;;;5080866;28;20441;-58
2022/12/24 05:52:14;;;;;;;34.90;6.85;;;8.30;99.90;;;;;;5111602;22;20031;-65
2022/12/24 05:54:39;;;;;;;54.88;8.07;;;8.30;99.90;;;;;;5065040;28;20072;-65
2022/12/24 05:57:05;;;;;;;46.03;6.65;;;8.30;99.90;;;;;;5038976;28;20048;-63
2022/12/24 05:59:31;;;;;;;44.00;7.45;;;8.40;99.90;;;;;;5036906;28;20551;-66
2022/12/24 06:01:56;;;;;;;63.90;9.88;;;8.40;99.90;;;;;;5056674;28;20044;-66
2022/12/24 06:04:22;;;;;;;41.83;6.40;;;8.40;99.90;;;;;;5031918;28;20040;-63
2022/12/24 06:06:48;;;;;;;48.22;6.90;;;8.40;99.90;;;;;;5048481;28;20398;-62
2022/12/24 06:09:14;;;;;;;46.17;6.93;;;8.40;99.90;;;;;;5031907;28;20044;-63
2022/12/24 06:11:39;;;;;;;53.00;9.18;;;8.40;99.90;;;;;;5048370;28;20048;-63
2022/12/24 06:14:05;;;;;;;47.40;9.35;;;8.30;99.90;;;;;;5040278;28;20059;-63
2022/12/24 06:16:31;;;;;;;49.85;9.32;;;8.30;99.90;;;;;;5046932;28;20048;-63
2022/12/24 06:18:56;;;;;;;44.17;7.72;;;8.30;99.90;;;;;;5028128;28;20517;-64
2022/12/24 06:21:22;;;;;;;36.47;6.95;;;8.30;99.90;;;;;;5046513;28;20037;-64
2022/12/24 06:23:48;;;;;;;40.05;6.63;;;8.20;99.90;;;;;;5048297;28;20045;-63
2022/12/24 06:26:18;;;;;;;43.08;6.32;;;8.20;99.90;;;;;;5057907;28;20080;-63
2022/12/24 06:28:44;;;;;;;46.40;7.10;;;8.20;99.90;;;;;;5032476;28;20045;-62
2022/12/24 06:31:12;;;;;;;46.25;6.72;;;8.20;99.90;;;;;;5047174;28;20441;-63
2022/12/24 06:33:38;;;;;;;49.47;7.85;;;8.20;99.90;;;;;;5047732;28;20094;-63
2022/12/24 06:36:09;;;;;;;46.25;6.43;;;8.20;99.90;;;;;;5056698;28;20446;-62
2022/12/24 06:38:35;;;;;;;46.10;7.18;;;8.20;99.90;;;;;;5031976;28;20036;-63
2022/12/24 06:41:05;;;;;;;37.25;7.43;;;8.10;99.90;;;;;;5031124;28;20043;-63
2022/12/24 06:43:33;;;;;;;45.63;7.65;;;8.10;99.90;;;;;;5049065;28;20036;-63
2022/12/24 06:46:00;;;;;;;35.75;6.82;;;8.10;99.90;;;;;;5030904;28;20059;-63
2022/12/24 06:48:25;;;;;;;55.20;7.18;;;8.10;99.90;;;;;;5050802;28;20045;-64
2022/12/24 06:50:51;;;;;;;51.30;7.22;;;8.10;99.90;;;;;;5047773;28;20047;-63
2022/12/24 06:53:17;;;;;;;42.85;7.35;;;8.10;99.90;;;;;;5039645;28;20090;-64
2022/12/24 06:55:43;;;;;;;39.35;6.32;;;8.10;99.90;;;;;;5030789;28;20033;-64
2022/12/24 06:58:09;;;;;;;46.17;7.97;;;8.10;99.90;;;;;;5047084;28;20033;-64
2022/12/24 07:00:35;;;;;;;43.60;6.35;;;8.10;99.90;;;;;;5052969;28;20052;-64
2022/12/24 07:03:01;;;;;;;39.08;6.13;;;8.10;99.90;;;;;;5047108;28;20044;-64
2022/12/24 07:05:27;;;;;;;37.20;6.07;;;8.10;99.90;;;;;;5047209;28;20033;-63
2022/12/24 07:07:53;;;;;;;40.30;6.70;;;8.10;99.90;;;;;;5047692;28;20120;-63
2022/12/24 07:10:19;;;;;;;40.65;6.95;;;8.10;99.90;;;;;;5051442;28;20179;-63
2022/12/24 07:12:45;;;;;;;36.50;6.20;;;8.00;99.90;;;;;;5050254;28;20044;-64
2022/12/24 07:15:12;;;;;;;45.90;7.03;;;8.00;99.90;;;;;;5049890;28;20083;-64
2022/12/24 07:17:38;;;;;;;46.13;6.45;;;8.00;99.90;;;;;;5050005;28;20029;-64
2022/12/24 07:20:06;;;;;;;46.70;7.20;;;7.90;99.90;;;;;;5034969;28;20049;-64
2022/12/24 07:22:31;;;;;;;35.42;6.43;;;7.90;99.90;;;;;;5054442;28;20090;-64
2022/12/24 07:24:57;;;;;;;46.13;7.35;;;7.90;99.90;;;;;;5047493;28;20431;-63
2022/12/24 07:27:23;;;;;;;41.88;7.30;;;7.90;99.90;;;;;;5050738;28;20041;-64
2022/12/24 07:29:48;;;;;;;38.72;5.97;;;7.90;99.90;;;;;;5034096;28;20106;-64
2022/12/24 07:32:14;;;;;;;39.22;6.90;;;7.90;99.90;;;;;;5059202;28;20037;-64
2022/12/24 07:34:40;;;;;;;51.20;7.47;;;7.80;99.90;;;;;;5034644;28;20081;-64
2022/12/24 07:37:06;;;;;;;38.03;5.82;;;7.80;99.90;;;;;;5051906;28;20033;-64
2022/12/24 07:39:32;;;;;;;56.53;9.35;;;7.80;99.90;;;;;;5033959;28;20456;-63
2022/12/24 07:41:58;;;;;;;37.92;6.05;;;7.80;99.90;;;;;;5052557;28;20072;-63
2022/12/24 07:44:24;;;;;;;37.03;6.28;;;7.70;99.90;;;;;;5051671;28;20072;-64
2022/12/24 07:46:50;;;;;;;43.88;7.13;;;7.70;99.90;;;;;;5050086;28;20048;-64
2022/12/24 07:49:15;;;;;;;34.05;6.85;;;7.70;99.90;;;;;;5050675;28;20048;-64
2022/12/24 07:51:41;;;;;;;53.85;7.55;;;7.70;99.90;;;;;;5033934;28;20067;-64
2022/12/24 07:54:07;;;;;;;35.75;5.90;;;7.70;99.90;;;;;;5052565;28;20123;-63
2022/12/24 07:56:33;;;;;;;37.90;5.90;;;7.70;99.90;;;;;;5039823;28;20041;-64
2022/12/24 07:58:59;;;;;;;46.42;7.97;;;7.70;99.90;;;;;;5049404;28;20090;-64
2022/12/24 08:01:25;;;;;;;40.20;6.88;;;7.60;99.90;;;;;;5049976;28;20041;-64
2022/12/24 08:03:53;;;;;;;50.67;7.50;;;7.60;99.90;;;;;;5037099;28;20440;-65
2022/12/24 08:06:19;;;;;;;42.03;9.15;;;7.60;99.90;;;;;;5049383;28;20040;-64
2022/12/24 08:08:45;;;;;;;42.70;6.70;;;7.60;99.90;;;;;;5033957;28;20136;-64
2022/12/24 08:11:12;;;;;;;42.22;6.43;;;7.60;99.90;;;;;;5033680;28;20132;-64
2022/12/24 08:13:37;;;;;;;43.95;6.45;;;7.70;99.90;;;;;;5050417;28;20045;-64
2022/12/24 08:16:04;;;;;;;39.38;6.50;;;7.60;99.90;;;;;;5049915;28;20051;-64
2022/12/24 08:18:30;;;;;;;35.25;6.95;;;7.70;99.90;;;;;;5033221;28;20098;-64
2022/12/24 08:20:55;;;;;;;51.45;7.60;;;7.70;99.90;;;;;;5042427;28;20041;-64
2022/12/24 08:23:21;;;;;;;41.92;6.80;;;7.70;99.90;;;;;;5049518;28;20037;-64
2022/12/24 08:25:47;;;;;;;41.97;8.10;;;7.70;99.90;;;;;;5032597;28;20080;-62
2022/12/24 08:28:16;;;;;;;41.17;6.30;;;7.80;99.90;;;;;;5051024;28;20123;-63
2022/12/24 08:30:43;;;;;;;36.45;6.45;;;7.80;99.90;;;;;;5054545;28;20056;-64
2022/12/24 08:33:09;;;;;;;40.13;6.90;;;7.80;99.90;;;;;;5032835;28;20080;-64
2022/12/24 08:35:35;;;;;;;43.40;6.35;;;7.90;99.90;;;;;;5048929;28;20037;-64
2022/12/24 08:38:01;;;;;;;37.72;6.43;;;7.90;99.90;;;;;;5033127;28;20052;-64
2022/12/24 08:40:27;;;;;;;44.03;6.85;;;7.90;99.90;;;;;;5048680;28;20114;-64
2022/12/24 08:42:53;;;;;;;34.90;6.65;;;8.00;99.90;;;;;;5034064;28;20041;-64
2022/12/24 08:45:19;;;;;;;39.25;6.10;;;8.00;99.90;;;;;;5016534;28;20114;-64
2022/12/24 08:47:45;;;;;;;42.75;7.40;;;8.10;99.90;;;;;;5032178;28;20037;-64
2022/12/24 08:50:11;;;;;;;46.20;8.00;;;8.10;99.90;;;;;;5051861;28;20518;-64
2022/12/24 08:52:38;;;;;;;31.95;7.38;;;8.10;99.90;;;;;;5055289;28;20083;-63
2022/12/24 08:55:04;;;;;;;43.28;7.90;;;8.20;99.90;;;;;;5049582;28;20484;-64
2022/12/24 08:57:30;;;;;;;59.95;8.68;;;8.20;99.90;;;;;;5050150;28;20105;-64
2022/12/24 08:59:55;;;;;;;43.35;6.63;;;8.20;99.90;;;;;;5031957;28;20041;-64
2022/12/24 09:02:21;;;;;;;44.65;8.00;;;8.30;99.90;;;;;;5051396;28;20035;-63
2022/12/24 09:04:47;;;;;;;37.53;6.60;;;8.30;99.90;;;;;;5031154;28;20036;-64
2022/12/24 09:07:13;;;;;;;51.15;7.10;;;8.30;99.90;;;;;;5040420;28;20037;-64
2022/12/24 09:09:38;;;;;;;31.85;6.78;;;8.40;99.90;;;;;;5050820;28;20041;-64
2022/12/24 09:12:05;;;;;;;35.17;6.80;;;8.40;99.90;;;;;;5056982;28;20177;-64
2022/12/24 09:14:31;;;;;;;44.22;6.80;;;8.40;99.90;;;;;;5057314;28;20739;-64
2022/12/24 09:16:58;;;;;;;37.65;7.18;;;8.50;99.90;;;;;;5050842;28;20116;-63
2022/12/24 09:19:24;;;;;;;40.05;6.90;;;8.50;99.90;;;;;;5046517;28;20037;-63
2022/12/24 09:21:49;;;;;;;39.70;6.82;;;8.50;99.90;;;;;;5047970;28;20479;-65
2022/12/24 09:24:15;;;;;;;48.65;8.55;;;8.60;99.90;;;;;;5047721;28;20041;-64
2022/12/24 09:26:48;;;;;;;47.00;7.63;;;8.60;99.90;;;;;;5014093;28;20131;-64
2022/12/24 09:29:13;;;;;;;37.05;7.00;;;8.60;99.90;;;;;;5047684;28;20120;-64
2022/12/24 09:31:39;;;;;;;39.13;6.43;;;8.70;99.90;;;;;;5047890;28;20137;-64
2022/12/24 09:34:05;;;;;;;32.70;7.18;;;8.70;99.90;;;;;;5031659;28;20500;-64
2022/12/24 09:36:33;;;;;;;41.42;7.03;;;8.80;99.90;;;;;;5030537;28;20079;-64
2022/12/24 09:38:59;;;;;;;49.00;7.35;;;8.80;99.90;;;;;;5049241;28;20048;-63
2022/12/24 09:41:32;;;;;;;42.63;8.57;;;8.90;99.90;;;;;;5065643;28;20098;-64
2022/12/24 09:44:30;;;;;;;30.13;7.57;;;8.90;99.90;;;;;;5032938;28;20037;-63
2022/12/24 09:47:00;;;;;;;38.80;7.95;;;8.90;99.90;;;;;;5049743;28;20431;-64
2022/12/24 09:49:39;;;;;;;43.72;7.70;;;8.90;99.90;;;;;;5036394;28;20041;-64
2022/12/24 09:52:09;;;;;;;45.95;7.03;;;9.00;99.90;;;;;;5051160;28;20037;-63
2022/12/24 09:54:41;;;;;;;50.88;8.43;;;9.00;99.90;;;;;;5047691;28;20033;-63
2022/12/24 09:57:16;;;;;;;50.58;7.95;;;9.10;99.90;;;;;;5049868;28;20033;-64
2022/12/24 09:59:45;;;;;;;39.25;6.28;;;9.10;99.90;;;;;;5062331;28;20048;-63
2022/12/24 10:02:14;;;;;;;44.60;6.82;;;9.10;99.90;;;;;;5053816;28;20037;-64
2022/12/24 10:04:42;;;;;;;42.83;7.30;;;9.10;99.90;;;;;;5060583;28;20041;-65
2022/12/24 10:07:36;;;;;;;50.53;8.77;;;9.10;99.90;;;;;;5053054;28;20076;-64
2022/12/24 10:10:33;;;;;;;41.23;7.90;;;9.10;99.90;;;;;;5030830;28;20247;-64
2022/12/24 10:13:25;;;;;;;48.28;7.57;;;9.20;99.90;;;;;;5044945;28;20044;-64
2022/12/24 10:16:10;;;;;;;41.10;8.95;;;9.10;99.90;;;;;;5009585;28;20049;-64
2022/12/24 10:18:54;;;;;;;45.35;8.25;;;9.20;99.90;;;;;;5046777;28;20044;-64
2022/12/24 10:21:47;;;;;;;48.85;8.82;;;9.20;99.90;;;;;;5048812;28;20041;-63
2022/12/24 10:24:45;;;;;;;41.00;8.25;;;9.20;99.90;;;;;;5054859;28;20067;-64
2022/12/24 10:27:14;;;;;;;38.72;8.10;;;9.20;99.90;;;;;;5043224;28;20209;-64
2022/12/24 10:29:54;;;;;;;42.47;8.48;;;9.20;99.90;;;;;;5045113;28;20048;-65
2022/12/24 10:32:23;;;;;;;39.08;8.48;;;9.20;99.90;;;;;;5037189;28;20074;-65
2022/12/24 10:35:04;;;;;;;35.83;6.20;;;9.30;99.90;;;;;;5049396;28;20048;-64
2022/12/24 10:37:30;;;;;;;47.08;8.13;;;9.30;99.90;;;;;;5048073;28;20053;-64
2022/12/24 10:39:58;;;;;;;43.58;7.72;;;9.30;99.90;;;;;;5015037;28;20140;-64
2022/12/24 10:42:31;;;;;;;40.15;6.60;;;9.30;99.90;;;;;;5048090;28;20662;-64
2022/12/24 10:45:03;;;;;;;48.13;9.50;;;9.40;99.90;;;;;;5048841;28;20051;-65
2022/12/24 10:47:32;;;;;;;34.05;7.97;;;9.40;99.90;;;;;;5049370;28;20098;-64
2022/12/24 10:50:14;;;;;;;31.90;7.05;;;9.40;99.90;;;;;;5050379;28;20049;-62
2022/12/24 10:52:43;;;;;;;41.58;7.35;;;9.40;99.90;;;;;;5045607;28;20045;-63
2022/12/24 10:55:22;;;;;;;29.65;5.57;;;9.40;99.90;;;;;;5053311;28;20133;-63
2022/12/24 10:58:06;;;;;;;30.95;6.03;;;9.40;99.90;;;;;;5048363;28;20099;-62
2022/12/24 11:00:41;;;;;;;29.45;6.43;;;9.50;99.90;;;;;;5060422;28;20036;-64
2022/12/24 11:03:35;;;;;;;34.90;6.13;;;9.40;99.90;;;;;;5027289;28;20125;-64
2022/12/24 11:06:07;;;;;;;31.67;5.53;;;9.40;99.90;;;;;;5049447;28;20037;-62
2022/12/24 11:08:34;;;;;;;31.77;6.07;;;9.40;99.90;;;;;;5056796;28;20044;-63
2022/12/24 11:11:04;;;;;;;32.63;5.50;;;9.40;99.90;;;;;;5062806;28;20104;-63
2022/12/24 11:13:31;;;;;;;26.70;5.43;;;9.40;99.90;;;;;;5051531;28;20041;-63
2022/12/24 11:16:16;;;;;;;36.10;5.97;;;9.40;99.90;;;;;;5055830;28;20032;-64
2022/12/24 11:18:51;;;;;;;38.92;6.07;;;9.40;99.90;;;;;;5048972;28;20105;-63
2022/12/24 11:21:40;;;;;;;38.00;5.25;;;9.50;99.90;;;;;;5049266;28;20033;-63
2022/12/24 11:24:12;;;;;;;33.67;5.93;;;9.50;99.90;;;;;;5036338;28;20039;-63
2022/12/24 11:26:41;;;;;;;34.03;5.82;;;9.50;99.90;;;;;;5049267;28;20090;-63
2022/12/24 11:29:23;;;;;;;24.35;4.82;;;9.50;99.90;;;;;;5048381;28;20102;-63
2022/12/24 11:31:51;;;;;;;33.15;5.38;;;9.50;99.90;;;;;;5047181;28;20060;-65
2022/12/24 11:34:32;;;;;;;32.55;5.63;;;9.50;99.90;;;;;;5047265;28;20119;-63
2022/12/24 11:37:21;;;;;;;38.40;5.75;;;9.50;99.90;;;;;;5046632;28;20037;-64
2022/12/24 11:39:48;;;;;;;37.35;6.50;;;9.50;99.90;;;;;;5051858;28;20048;-63
2022/12/24 11:42:35;;;;;;;27.85;5.85;;;9.50;99.90;;;;;;5039147;28;20041;-63
2022/12/24 11:45:05;;;;;;;35.17;4.60;;;9.60;99.90;;;;;;5029607;28;20037;-61
2022/12/24 11:47:41;;;;;;;28.35;5.97;;;9.50;99.90;;;;;;5044968;28;20033;-63
2022/12/24 11:50:19;;;;;;;26.35;5.88;;;9.50;99.90;;;;;;5032030;28;20045;-63
2022/12/24 11:53:05;;;;;;;29.88;6.85;;;9.50;99.90;;;;;;5042028;28;20202;-61
2022/12/24 11:55:43;;;;;;;25.45;5.10;;;9.50;99.90;;;;;;5042514;28;20057;-59
2022/12/24 11:58:24;;;;;;;32.58;5.57;;;9.50;99.90;;;;;;5040685;28;20037;-60
2022/12/24 12:00:51;;;;;;;24.30;5.30;;;9.60;99.90;;;;;;5050075;28;20049;-64
2022/12/24 12:03:35;;;;;;;22.23;4.97;;;9.60;99.90;;;;;;5041558;28;20041;-64
2022/12/24 12:06:06;;;;;;;29.63;5.57;;;9.50;99.90;;;;;;5050334;28;20045;-62
2022/12/24 12:08:34;;;;;;;33.65;6.82;;;9.60;99.90;;;;;;5031550;28;20405;-63
2022/12/24 12:11:07;;;;;;;28.85;5.15;;;9.60;99.90;;;;;;5057035;28;20072;-63
2022/12/24 12:13:33;;;;;;;25.42;5.07;;;9.60;99.90;;;;;;5051166;28;20064;-64
2022/12/24 12:16:22;;;;;;;20.95;4.88;;;9.60;99.90;;;;;;5051086;28;20037;-62
2022/12/24 12:18:59;;;;;;;27.60;6.97;;;9.60;99.90;;;;;;5051006;28;20041;-63
2022/12/24 12:21:34;;;;;;;30.10;6.43;;;9.60;99.90;;;;;;5050711;28;20041;-63
2022/12/24 12:24:18;;;;;;;32.70;6.13;;;9.60;99.90;;;;;;5067155;22;20036;-58
2022/12/24 12:26:45;;;;;;;30.92;4.80;;;9.60;99.90;;;;;;5035828;28;20125;-58
2022/12/24 12:29:25;;;;;;;34.22;7.93;;;9.60;99.90;;;;;;5058860;28;20575;-58
2022/12/24 12:31:59;;;;;;;30.75;7.47;;;9.60;99.90;;;;;;5023506;28;20175;-56
2022/12/24 12:34:51;;;;;;;22.45;5.25;;;9.60;99.90;;;;;;5049963;28;20048;-57
2022/12/24 12:37:25;;;;;;;30.70;4.85;;;9.60;99.90;;;;;;5044336;28;20111;-57
2022/12/24 12:39:51;;;;;;;24.25;4.60;;;9.60;99.90;;;;;;5043956;28;20515;-58
2022/12/24 12:42:33;;;;;;;22.30;4.88;;;9.60;99.90;;;;;;5029013;28;20103;-57
2022/12/24 12:45:05;;;;;;;24.23;4.75;;;9.60;99.90;;;;;;5057362;28;20514;-57
2022/12/24 12:47:40;;;;;;;23.80;5.32;;;9.60;99.90;;;;;;5039499;28;20178;-58
2022/12/24 12:50:30;;;;;;;20.05;5.30;;;9.60;99.90;;;;;;5030164;28;20094;-56
2022/12/24 12:53:14;;;;;;;20.52;4.70;;;9.60;99.90;;;;;;5049850;28;20135;-57
2022/12/24 12:55:58;;;;;;;27.65;4.90;;;9.60;99.90;;;;;;5060423;28;20079;-57
2022/12/24 12:58:26;;;;;;;;;;;9.60;99.90;;;;;;5063626;28;20076;-57
2022/12/24 13:00:57;;;;;;;25.33;4.88;;;9.60;99.90;;;;;;5058727;28;20430;-56
2022/12/24 13:03:42;;;;;;;18.73;4.35;;;9.60;99.90;;;;;;5038005;28;20041;-57
2022/12/24 13:06:32;;;;;;;21.88;3.72;;;9.50;99.90;;;;;;5066426;28;20131;-56
2022/12/24 13:09:19;;;;;;;20.33;4.40;;;9.50;99.90;;;;;;5063403;28;20082;-57
2022/12/24 13:12:00;;;;;;;22.60;4.45;;;9.50;99.90;;;;;;5047963;28;20048;-57